sensor_id;sensor_type;location;lat;lon;timestamp;pressure;altitude;pressure_sealevel;temperature;humidity
20043;BME280;10182;52.896;6.496;2023-06-10T00:00:01;101566.16;;;17.39;100.00
20043;BME280;10182;52.896;6.496;2023-06-10T00:05:06;101570.34;;;17.29;100.00
20043;BME280;10182;52.896;6.496;2023-06-10T00:10:08;101573.03;;;17.29;100.00
20043;BME280;10182;52.896;6.496;2023-06-10T00:15:12;101569.56;;;17.12;100.00
20043;BME280;10182;52.896;6.496;2023-06-10T00:20:14;101572.06;;;17.01;100.00
20043;BME280;10182;52.896;6.496;2023-06-10T00:25:16;101575.88;;;16.97;100.00
20043;BME280;10182;52.896;6.496;2023-06-10T00:30:19;101580.72;;;16.90;100.00
20043;BME280;10182;52.896;6.496;2023-06-10T00:35:21;101574.25;;;16.78;100.00
20043;BME280;10182;52.896;6.496;2023-06-10T00:40:23;101569.84;;;16.63;100.00
20043;BME280;10182;52.896;6.496;2023-06-10T00:45:26;101572.94;;;16.55;100.00
20043;BME280;10182;52.896;6.496;2023-06-10T00:50:28;101587.63;;;16.48;100.00
20043;BME280;10182;52.896;6.496;2023-06-10T00:55:31;101577.13;;;16.45;100.00
20043;BME280;10182;52.896;6.496;2023-06-10T01:00:34;101572.13;;;16.38;100.00
20043;BME280;10182;52.896;6.496;2023-06-10T01:05:36;101578.78;;;16.31;100.00
20043;BME280;10182;52.896;6.496;2023-06-10T01:10:42;101575.69;;;16.23;100.00
20043;BME280;10182;52.896;6.496;2023-06-10T01:15:46;101578.69;;;16.17;100.00
20043;BME280;10182;52.896;6.496;2023-06-10T01:20:48;101584.41;;;16.11;100.00
20043;BME280;10182;52.896;6.496;2023-06-10T01:25:54;101589.84;;;16.09;100.00
20043;BME280;10182;52.896;6.496;2023-06-10T01:31:04;101591.06;;;16.03;100.00
20043;BME280;10182;52.896;6.496;2023-06-10T01:36:10;101589.75;;;15.95;100.00
20043;BME280;10182;52.896;6.496;2023-06-10T01:41:16;101584.06;;;15.85;100.00
20043;BME280;10182;52.896;6.496;2023-06-10T01:46:18;101585.97;;;15.83;100.00
20043;BME280;10182;52.896;6.496;2023-06-10T01:51:21;101587.28;;;15.74;100.00
20043;BME280;10182;52.896;6.496;2023-06-10T01:56:24;101600.91;;;15.69;100.00
20043;BME280;10182;52.896;6.496;2023-06-10T02:01:26;101596.59;;;15.67;100.00
20043;BME280;10182;52.896;6.496;2023-06-10T02:06:28;101593.84;;;15.68;100.00
20043;BME280;10182;52.896;6.496;2023-06-10T02:11:31;101597.78;;;15.61;100.00
20043;BME280;10182;52.896;6.496;2023-06-10T02:16:32;101597.44;;;15.51;100.00
20043;BME280;10182;52.896;6.496;2023-06-10T02:21:34;101601.19;;;15.47;100.00
20043;BME280;10182;52.896;6.496;2023-06-10T02:26:37;101603.41;;;15.39;100.00
20043;BME280;10182;52.896;6.496;2023-06-10T02:31:40;101599.44;;;15.30;100.00
20043;BME280;10182;52.896;6.496;2023-06-10T02:36:42;101601.56;;;15.23;100.00
20043;BME280;10182;52.896;6.496;2023-06-10T02:41:45;101601.94;;;15.16;100.00
20043;BME280;10182;52.896;6.496;2023-06-10T02:46:47;101612.03;;;15.11;100.00
20043;BME280;10182;52.896;6.496;2023-06-10T02:51:49;101601.09;;;14.98;100.00
20043;BME280;10182;52.896;6.496;2023-06-10T02:56:54;101607.16;;;14.84;100.00
20043;BME280;10182;52.896;6.496;2023-06-10T03:01:56;101604.88;;;14.76;100.00
20043;BME280;10182;52.896;6.496;2023-06-10T03:06:59;101600.03;;;14.67;100.00
20043;BME280;10182;52.896;6.496;2023-06-10T03:12:06;101608.03;;;14.67;100.00
20043;BME280;10182;52.896;6.496;2023-06-10T03:17:08;101612.75;;;14.60;100.00
20043;BME280;10182;52.896;6.496;2023-06-10T03:22:11;101613.84;;;14.56;100.00
20043;BME280;10182;52.896;6.496;2023-06-10T03:27:15;101615.59;;;14.57;100.00
20043;BME280;10182;52.896;6.496;2023-06-10T03:32:16;101623.16;;;14.47;100.00
20043;BME280;10182;52.896;6.496;2023-06-10T03:37:18;101625.81;;;14.47;100.00
20043;BME280;10182;52.896;6.496;2023-06-10T03:42:21;101623.63;;;14.38;100.00
20043;BME280;10182;52.896;6.496;2023-06-10T03:47:23;101632.75;;;14.32;100.00
20043;BME280;10182;52.896;6.496;2023-06-10T03:52:25;101632.91;;;14.29;100.00
20043;BME280;10182;52.896;6.496;2023-06-10T03:57:28;101635.72;;;14.26;100.00
20043;BME280;10182;52.896;6.496;2023-06-10T04:02:29;101623.50;;;14.22;100.00
20043;BME280;10182;52.896;6.496;2023-06-10T04:07:33;101628.16;;;14.36;100.00
20043;BME280;10182;52.896;6.496;2023-06-10T04:12:36;101632.16;;;14.64;100.00
20043;BME280;10182;52.896;6.496;2023-06-10T04:17:38;101626.75;;;14.83;100.00
20043;BME280;10182;52.896;6.496;2023-06-10T04:22:40;101633.19;;;14.96;100.00
20043;BME280;10182;52.896;6.496;2023-06-10T04:27:43;101635.22;;;14.91;100.00
20043;BME280;10182;52.896;6.496;2023-06-10T04:32:45;101637.06;;;15.08;100.00
20043;BME280;10182;52.896;6.496;2023-06-10T04:37:47;101633.50;;;15.07;100.00
20043;BME280;10182;52.896;6.496;2023-06-10T04:42:50;101639.81;;;15.24;100.00
20043;BME280;10182;52.896;6.496;2023-06-10T04:47:52;101643.16;;;15.28;100.00
20043;BME280;10182;52.896;6.496;2023-06-10T04:52:56;101649.09;;;15.50;100.00
20043;BME280;10182;52.896;6.496;2023-06-10T04:57:59;101650.75;;;15.69;100.00
20043;BME280;10182;52.896;6.496;2023-06-10T05:03:00;101658.88;;;15.67;100.00
20043;BME280;10182;52.896;6.496;2023-06-10T05:08:02;101654.84;;;15.76;100.00
20043;BME280;10182;52.896;6.496;2023-06-10T05:13:05;101648.63;;;15.76;100.00
20043;BME280;10182;52.896;6.496;2023-06-10T05:18:07;101652.22;;;15.92;100.00
20043;BME280;10182;52.896;6.496;2023-06-10T05:23:09;101652.94;;;15.96;100.00
20043;BME280;10182;52.896;6.496;2023-06-10T05:28:12;101653.28;;;16.05;100.00
20043;BME280;10182;52.896;6.496;2023-06-10T05:33:13;101667.31;;;16.25;100.00
20043;BME280;10182;52.896;6.496;2023-06-10T05:38:15;101664.34;;;16.47;100.00
20043;BME280;10182;52.896;6.496;2023-06-10T05:43:18;101668.69;;;16.48;100.00
20043;BME280;10182;52.896;6.496;2023-06-10T05:48:20;101673.53;;;16.41;100.00
20043;BME280;10182;52.896;6.496;2023-06-10T05:53:21;101674.91;;;16.65;100.00
20043;BME280;10182;52.896;6.496;2023-06-10T05:58:24;101675.88;;;16.64;100.00
20043;BME280;10182;52.896;6.496;2023-06-10T06:03:26;101663.25;;;16.66;100.00
20043;BME280;10182;52.896;6.496;2023-06-10T06:08:29;101662.22;;;16.68;100.00
20043;BME280;10182;52.896;6.496;2023-06-10T06:13:32;101655.94;;;16.69;100.00
20043;BME280;10182;52.896;6.496;2023-06-10T06:18:33;101664.56;;;16.58;100.00
20043;BME280;10182;52.896;6.496;2023-06-10T06:23:35;101656.09;;;16.66;100.00
20043;BME280;10182;52.896;6.496;2023-06-10T06:28:38;101650.09;;;16.93;100.00
20043;BME280;10182;52.896;6.496;2023-06-10T06:33:40;101660.00;;;17.07;100.00
20043;BME280;10182;52.896;6.496;2023-06-10T06:38:42;101653.91;;;17.19;100.00
20043;BME280;10182;52.896;6.496;2023-06-10T06:43:45;101657.19;;;17.39;100.00
20043;BME280;10182;52.896;6.496;2023-06-10T06:48:46;101656.31;;;17.38;100.00
20043;BME280;10182;52.896;6.496;2023-06-10T06:53:48;101653.56;;;17.54;100.00
20043;BME280;10182;52.896;6.496;2023-06-10T06:58:52;101656.84;;;17.59;100.00
20043;BME280;10182;52.896;6.496;2023-06-10T07:03:54;101667.06;;;17.82;100.00
20043;BME280;10182;52.896;6.496;2023-06-10T07:08:56;101671.31;;;18.00;100.00
20043;BME280;10182;52.896;6.496;2023-06-10T07:13:59;101671.16;;;18.16;100.00
20043;BME280;10182;52.896;6.496;2023-06-10T07:19:00;101661.06;;;18.34;100.00
20043;BME280;10182;52.896;6.496;2023-06-10T07:24:02;101670.81;;;18.50;100.00
20043;BME280;10182;52.896;6.496;2023-06-10T07:29:06;101674.41;;;18.63;100.00
20043;BME280;10182;52.896;6.496;2023-06-10T07:34:07;101681.19;;;18.69;100.00
20043;BME280;10182;52.896;6.496;2023-06-10T07:39:09;101676.34;;;18.88;100.00
20043;BME280;10182;52.896;6.496;2023-06-10T07:44:12;101674.38;;;19.18;100.00
20043;BME280;10182;52.896;6.496;2023-06-10T07:49:14;101676.00;;;19.46;100.00
20043;BME280;10182;52.896;6.496;2023-06-10T07:54:16;101679.97;;;19.79;100.00
20043;BME280;10182;52.896;6.496;2023-06-10T07:59:19;101666.75;;;19.76;100.00
20043;BME280;10182;52.896;6.496;2023-06-10T08:04:21;101671.28;;;20.01;100.00
20043;BME280;10182;52.896;6.496;2023-06-10T08:09:22;101682.97;;;20.13;100.00
20043;BME280;10182;52.896;6.496;2023-06-10T08:14:25;101675.19;;;20.21;100.00
20043;BME280;10182;52.896;6.496;2023-06-10T08:19:27;101687.25;;;20.28;100.00
20043;BME280;10182;52.896;6.496;2023-06-10T08:24:29;101686.34;;;20.41;100.00
20043;BME280;10182;52.896;6.496;2023-06-10T08:29:32;101689.13;;;20.63;100.00
20043;BME280;10182;52.896;6.496;2023-06-10T08:34:34;101693.22;;;20.93;100.00
20043;BME280;10182;52.896;6.496;2023-06-10T08:39:35;101693.34;;;21.27;100.00
20043;BME280;10182;52.896;6.496;2023-06-10T08:44:39;101683.09;;;21.33;100.00
20043;BME280;10182;52.896;6.496;2023-06-10T08:49:43;101682.16;;;21.56;100.00
20043;BME280;10182;52.896;6.496;2023-06-10T08:54:49;101676.16;;;21.87;100.00
20043;BME280;10182;52.896;6.496;2023-06-10T08:59:56;101675.19;;;21.88;100.00
20043;BME280;10182;52.896;6.496;2023-06-10T09:04:58;101676.16;;;22.09;100.00
20043;BME280;10182;52.896;6.496;2023-06-10T09:10:01;101674.19;;;22.34;100.00
20043;BME280;10182;52.896;6.496;2023-06-10T09:15:09;101670.38;;;22.37;100.00
20043;BME280;10182;52.896;6.496;2023-06-10T09:20:12;101668.41;;;22.39;100.00
20043;BME280;10182;52.896;6.496;2023-06-10T09:25:14;101668.13;;;22.53;100.00
20043;BME280;10182;52.896;6.496;2023-06-10T09:30:28;101661.78;;;22.75;100.00
20043;BME280;10182;52.896;6.496;2023-06-10T09:35:30;101661.16;;;22.83;99.18
20043;BME280;10182;52.896;6.496;2023-06-10T09:40:32;101659.53;;;23.34;96.46
20043;BME280;10182;52.896;6.496;2023-06-10T09:45:35;101649.69;;;23.54;86.41
20043;BME280;10182;52.896;6.496;2023-06-10T09:50:41;101662.03;;;23.47;85.81
20043;BME280;10182;52.896;6.496;2023-06-10T09:55:44;101653.59;;;23.19;80.32
20043;BME280;10182;52.896;6.496;2023-06-10T10:00:52;101660.09;;;23.59;78.57
20043;BME280;10182;52.896;6.496;2023-06-10T10:05:58;101656.69;;;23.57;72.21
20043;BME280;10182;52.896;6.496;2023-06-10T10:11:01;101658.50;;;23.87;70.66
20043;BME280;10182;52.896;6.496;2023-06-10T10:16:09;101657.31;;;24.11;68.11
20043;BME280;10182;52.896;6.496;2023-06-10T10:21:13;101657.09;;;24.33;69.27
20043;BME280;10182;52.896;6.496;2023-06-10T10:26:17;101656.13;;;24.35;60.65
20043;BME280;10182;52.896;6.496;2023-06-10T10:31:21;101643.13;;;24.38;64.32
20043;BME280;10182;52.896;6.496;2023-06-10T10:36:24;101647.34;;;24.62;58.31
20043;BME280;10182;52.896;6.496;2023-06-10T10:41:26;101643.50;;;24.74;60.66
20043;BME280;10182;52.896;6.496;2023-06-10T10:46:29;101640.34;;;24.69;54.80
20043;BME280;10182;52.896;6.496;2023-06-10T10:51:33;101637.06;;;24.95;58.80
20043;BME280;10182;52.896;6.496;2023-06-10T10:56:35;101631.03;;;25.01;59.67
20043;BME280;10182;52.896;6.496;2023-06-10T11:01:41;101623.91;;;25.10;51.80
20043;BME280;10182;52.896;6.496;2023-06-10T11:06:52;101622.44;;;25.35;53.29
20043;BME280;10182;52.896;6.496;2023-06-10T11:11:56;101612.72;;;25.32;49.07
20043;BME280;10182;52.896;6.496;2023-06-10T11:17:00;101612.09;;;25.58;55.02
20043;BME280;10182;52.896;6.496;2023-06-10T11:22:04;101604.56;;;25.52;59.24
20043;BME280;10182;52.896;6.496;2023-06-10T11:27:17;101600.13;;;25.51;46.98
20043;BME280;10182;52.896;6.496;2023-06-10T11:32:20;101601.66;;;25.63;46.66
20043;BME280;10182;52.896;6.496;2023-06-10T11:37:22;101605.13;;;25.83;48.97
20043;BME280;10182;52.896;6.496;2023-06-10T11:42:24;101593.06;;;25.96;51.46
20043;BME280;10182;52.896;6.496;2023-06-10T11:47:27;101603.03;;;25.95;53.04
20043;BME280;10182;52.896;6.496;2023-06-10T11:52:30;101592.31;;;26.22;52.20
20043;BME280;10182;52.896;6.496;2023-06-10T11:57:34;101590.78;;;26.19;48.82
20043;BME280;10182;52.896;6.496;2023-06-10T12:02:37;101600.16;;;26.07;46.81
20043;BME280;10182;52.896;6.496;2023-06-10T12:07:38;101596.50;;;26.34;51.24
20043;BME280;10182;52.896;6.496;2023-06-10T12:12:40;101596.38;;;26.35;48.58
20043;BME280;10182;52.896;6.496;2023-06-10T12:17:44;101587.22;;;26.37;47.02
20043;BME280;10182;52.896;6.496;2023-06-10T12:22:47;101579.28;;;26.61;49.58
20043;BME280;10182;52.896;6.496;2023-06-10T12:27:52;101582.31;;;26.58;47.63
20043;BME280;10182;52.896;6.496;2023-06-10T12:32:56;101577.19;;;26.55;48.17
20043;BME280;10182;52.896;6.496;2023-06-10T12:37:58;101569.81;;;26.83;47.68
20043;BME280;10182;52.896;6.496;2023-06-10T12:43:01;101564.84;;;26.79;46.12
20043;BME280;10182;52.896;6.496;2023-06-10T12:48:09;101559.06;;;27.00;46.50
20043;BME280;10182;52.896;6.496;2023-06-10T12:53:11;101563.00;;;26.79;44.93
20043;BME280;10182;52.896;6.496;2023-06-10T12:58:13;101551.75;;;27.00;42.09
20043;BME280;10182;52.896;6.496;2023-06-10T13:03:16;101555.59;;;27.24;41.95
20043;BME280;10182;52.896;6.496;2023-06-10T13:08:18;101554.41;;;27.45;41.94
20043;BME280;10182;52.896;6.496;2023-06-10T13:13:19;101552.50;;;27.88;37.68
20043;BME280;10182;52.896;6.496;2023-06-10T13:18:23;101552.50;;;27.96;34.51
20043;BME280;10182;52.896;6.496;2023-06-10T13:23:24;101545.47;;;28.28;34.74
20043;BME280;10182;52.896;6.496;2023-06-10T13:28:26;101548.25;;;27.94;35.67
20043;BME280;10182;52.896;6.496;2023-06-10T13:33:29;101537.78;;;28.32;34.97
20043;BME280;10182;52.896;6.496;2023-06-10T13:38:31;101546.47;;;28.44;34.11
20043;BME280;10182;52.896;6.496;2023-06-10T13:43:32;101539.66;;;28.40;34.06
20043;BME280;10182;52.896;6.496;2023-06-10T13:48:35;101541.03;;;28.60;34.58
20043;BME280;10182;52.896;6.496;2023-06-10T13:53:37;101519.91;;;28.87;36.16
20043;BME280;10182;52.896;6.496;2023-06-10T13:58:39;101531.50;;;28.15;34.33
20043;BME280;10182;52.896;6.496;2023-06-10T14:03:43;101529.09;;;28.03;33.42
20043;BME280;10182;52.896;6.496;2023-06-10T14:08:45;101518.88;;;28.14;33.54
20043;BME280;10182;52.896;6.496;2023-06-10T14:13:47;101518.41;;;28.43;33.91
20043;BME280;10182;52.896;6.496;2023-06-10T14:18:52;101513.63;;;28.70;35.86
20043;BME280;10182;52.896;6.496;2023-06-10T14:23:53;101514.78;;;28.59;36.58
20043;BME280;10182;52.896;6.496;2023-06-10T14:28:55;101520.59;;;28.48;37.45
20043;BME280;10182;52.896;6.496;2023-06-10T14:33:58;101511.06;;;28.27;35.60
20043;BME280;10182;52.896;6.496;2023-06-10T14:39:00;101515.16;;;28.23;33.50
20043;BME280;10182;52.896;6.496;2023-06-10T14:44:01;101516.69;;;28.17;36.29
20043;BME280;10182;52.896;6.496;2023-06-10T14:49:04;101513.63;;;28.45;36.08
20043;BME280;10182;52.896;6.496;2023-06-10T14:54:06;101510.38;;;28.50;33.71
20043;BME280;10182;52.896;6.496;2023-06-10T14:59:08;101503.56;;;28.29;33.28
20043;BME280;10182;52.896;6.496;2023-06-10T15:04:11;101501.88;;;28.53;34.89
20043;BME280;10182;52.896;6.496;2023-06-10T15:09:13;101498.97;;;28.79;32.64
20043;BME280;10182;52.896;6.496;2023-06-10T15:14:14;101489.75;;;28.80;31.24
20043;BME280;10182;52.896;6.496;2023-06-10T15:24:59;101480.75;;;28.72;30.65
20043;BME280;10182;52.896;6.496;2023-06-10T15:30:00;101477.84;;;28.57;29.33
20043;BME280;10182;52.896;6.496;2023-06-10T15:35:02;101473.63;;;28.70;31.32
20043;BME280;10182;52.896;6.496;2023-06-10T15:40:07;101483.13;;;28.33;29.13
20043;BME280;10182;52.896;6.496;2023-06-10T15:45:09;101479.72;;;27.98;28.15
20043;BME280;10182;52.896;6.496;2023-06-10T15:50:12;101480.09;;;28.03;29.18
20043;BME280;10182;52.896;6.496;2023-06-10T15:55:15;101474.50;;;28.22;29.75
20043;BME280;10182;52.896;6.496;2023-06-10T16:00:17;101468.13;;;27.88;30.13
20043;BME280;10182;52.896;6.496;2023-06-10T16:05:19;101469.13;;;27.79;31.33
20043;BME280;10182;52.896;6.496;2023-06-10T16:10:22;101462.69;;;27.96;31.73
20043;BME280;10182;52.896;6.496;2023-06-10T16:15:24;101456.56;;;27.78;31.28
20043;BME280;10182;52.896;6.496;2023-06-10T16:20:26;101461.28;;;27.59;32.34
20043;BME280;10182;52.896;6.496;2023-06-10T16:25:29;101457.00;;;27.57;31.41
20043;BME280;10182;52.896;6.496;2023-06-10T16:30:31;101450.81;;;28.06;32.12
20043;BME280;10182;52.896;6.496;2023-06-10T16:35:33;101448.72;;;29.30;30.32
20043;BME280;10182;52.896;6.496;2023-06-10T16:40:36;101450.25;;;31.23;27.96
20043;BME280;10182;52.896;6.496;2023-06-10T16:45:38;101447.38;;;33.38;25.61
20043;BME280;10182;52.896;6.496;2023-06-10T16:50:40;101440.69;;;34.74;25.02
20043;BME280;10182;52.896;6.496;2023-06-10T16:55:43;101444.78;;;33.85;25.03
20043;BME280;10182;52.896;6.496;2023-06-10T17:00:44;101445.69;;;32.60;25.74
20043;BME280;10182;52.896;6.496;2023-06-10T17:05:46;101450.03;;;29.65;29.60
20043;BME280;10182;52.896;6.496;2023-06-10T17:10:49;101449.81;;;28.23;30.87
20043;BME280;10182;52.896;6.496;2023-06-10T17:15:51;101450.41;;;27.59;32.36
20043;BME280;10182;52.896;6.496;2023-06-10T17:20:52;101447.53;;;27.18;33.48
20043;BME280;10182;52.896;6.496;2023-06-10T17:25:55;101442.31;;;26.90;34.69
20043;BME280;10182;52.896;6.496;2023-06-10T17:30:57;101445.34;;;26.61;36.57
20043;BME280;10182;52.896;6.496;2023-06-10T17:35:59;101444.53;;;26.68;41.26
20043;BME280;10182;52.896;6.496;2023-06-10T17:41:02;101454.03;;;26.38;36.65
20043;BME280;10182;52.896;6.496;2023-06-10T17:46:03;101449.28;;;26.40;38.80
20043;BME280;10182;52.896;6.496;2023-06-10T17:51:05;101448.88;;;26.35;38.64
20043;BME280;10182;52.896;6.496;2023-06-10T17:56:08;101451.59;;;26.35;39.82
20043;BME280;10182;52.896;6.496;2023-06-10T18:01:10;101449.16;;;26.24;39.71
20043;BME280;10182;52.896;6.496;2023-06-10T18:06:12;101447.28;;;26.24;41.84
20043;BME280;10182;52.896;6.496;2023-06-10T18:11:15;101450.63;;;26.18;45.83
20043;BME280;10182;52.896;6.496;2023-06-10T18:16:16;101448.47;;;26.04;48.58
20043;BME280;10182;52.896;6.496;2023-06-10T18:21:18;101448.53;;;25.76;49.95
20043;BME280;10182;52.896;6.496;2023-06-10T18:26:21;101452.16;;;25.66;52.28
20043;BME280;10182;52.896;6.496;2023-06-10T18:31:23;101449.38;;;25.58;53.92
20043;BME280;10182;52.896;6.496;2023-06-10T18:36:25;101461.13;;;25.49;53.90
20043;BME280;10182;52.896;6.496;2023-06-10T18:41:28;101464.22;;;25.36;56.44
20043;BME280;10182;52.896;6.496;2023-06-10T18:46:30;101458.81;;;25.26;57.40
20043;BME280;10182;52.896;6.496;2023-06-10T18:51:31;101461.00;;;25.13;59.07
20043;BME280;10182;52.896;6.496;2023-06-10T18:56:34;101473.19;;;24.99;61.49
20043;BME280;10182;52.896;6.496;2023-06-10T19:01:36;101461.19;;;24.64;69.50
20043;BME280;10182;52.896;6.496;2023-06-10T19:06:38;101469.63;;;24.41;71.63
20043;BME280;10182;52.896;6.496;2023-06-10T19:11:41;101475.34;;;24.19;76.91
20043;BME280;10182;52.896;6.496;2023-06-10T19:16:42;101480.88;;;23.97;83.64
20043;BME280;10182;52.896;6.496;2023-06-10T19:21:44;101488.25;;;23.76;86.89
20043;BME280;10182;52.896;6.496;2023-06-10T19:26:47;101490.03;;;23.56;87.13
20043;BME280;10182;52.896;6.496;2023-06-10T19:31:49;101497.00;;;23.48;87.77
20043;BME280;10182;52.896;6.496;2023-06-10T19:36:50;101499.81;;;23.37;87.89
20043;BME280;10182;52.896;6.496;2023-06-10T19:41:53;101498.78;;;23.07;92.15
20043;BME280;10182;52.896;6.496;2023-06-10T19:46:55;101499.31;;;22.91;97.04
20043;BME280;10182;52.896;6.496;2023-06-10T19:51:57;101509.47;;;22.78;100.00
20043;BME280;10182;52.896;6.496;2023-06-10T19:57:00;101510.47;;;22.56;100.00
20043;BME280;10182;52.896;6.496;2023-06-10T20:02:02;101516.69;;;22.24;100.00
20043;BME280;10182;52.896;6.496;2023-06-10T20:07:04;101522.50;;;22.19;100.00
20043;BME280;10182;52.896;6.496;2023-06-10T20:12:09;101521.97;;;21.93;100.00
20043;BME280;10182;52.896;6.496;2023-06-10T20:17:11;101513.22;;;21.68;100.00
20043;BME280;10182;52.896;6.496;2023-06-10T20:22:13;101519.47;;;21.46;100.00
20043;BME280;10182;52.896;6.496;2023-06-10T20:27:17;101529.00;;;21.39;100.00
20043;BME280;10182;52.896;6.496;2023-06-10T20:32:19;101528.50;;;21.34;100.00
20043;BME280;10182;52.896;6.496;2023-06-10T20:37:21;101537.22;;;21.26;100.00
20043;BME280;10182;52.896;6.496;2023-06-10T20:42:24;101535.00;;;21.20;100.00
20043;BME280;10182;52.896;6.496;2023-06-10T20:47:25;101538.91;;;21.16;100.00
20043;BME280;10182;52.896;6.496;2023-06-10T20:52:27;101544.31;;;21.04;100.00
20043;BME280;10182;52.896;6.496;2023-06-10T20:57:30;101550.91;;;20.89;100.00
20043;BME280;10182;52.896;6.496;2023-06-10T21:02:32;101550.66;;;20.92;100.00
20043;BME280;10182;52.896;6.496;2023-06-10T21:07:33;101546.34;;;20.78;100.00
20043;BME280;10182;52.896;6.496;2023-06-10T21:12:37;101549.63;;;20.70;100.00
20043;BME280;10182;52.896;6.496;2023-06-10T21:17:38;101546.75;;;20.60;100.00
20043;BME280;10182;52.896;6.496;2023-06-10T21:22:40;101550.00;;;20.53;100.00
20043;BME280;10182;52.896;6.496;2023-06-10T21:27:43;101555.25;;;20.43;100.00
20043;BME280;10182;52.896;6.496;2023-06-10T21:32:45;101565.84;;;20.33;100.00
20043;BME280;10182;52.896;6.496;2023-06-10T21:37:48;101555.88;;;20.22;100.00
20043;BME280;10182;52.896;6.496;2023-06-10T21:42:51;101555.47;;;20.16;100.00
20043;BME280;10182;52.896;6.496;2023-06-10T21:47:53;101561.66;;;20.05;100.00
20043;BME280;10182;52.896;6.496;2023-06-10T21:52:54;101561.06;;;19.88;100.00
20043;BME280;10182;52.896;6.496;2023-06-10T21:57:57;101553.47;;;19.82;100.00
20043;BME280;10182;52.896;6.496;2023-06-10T22:02:59;101556.16;;;19.82;100.00
20043;BME280;10182;52.896;6.496;2023-06-10T22:08:02;101547.34;;;19.80;100.00
20043;BME280;10182;52.896;6.496;2023-06-10T22:13:05;101546.34;;;19.68;100.00
20043;BME280;10182;52.896;6.496;2023-06-10T22:18:08;101543.72;;;19.55;100.00
20043;BME280;10182;52.896;6.496;2023-06-10T22:23:10;101550.28;;;19.51;100.00
20043;BME280;10182;52.896;6.496;2023-06-10T22:28:13;101555.88;;;19.48;100.00
20043;BME280;10182;52.896;6.496;2023-06-10T22:33:15;101553.72;;;19.40;100.00
20043;BME280;10182;52.896;6.496;2023-06-10T22:38:17;101552.75;;;19.28;100.00
20043;BME280;10182;52.896;6.496;2023-06-10T22:43:20;101549.78;;;19.07;100.00
20043;BME280;10182;52.896;6.496;2023-06-10T22:48:21;101554.50;;;19.04;100.00
20043;BME280;10182;52.896;6.496;2023-06-10T22:53:23;101560.94;;;18.88;100.00
20043;BME280;10182;52.896;6.496;2023-06-10T22:58:26;101567.72;;;18.67;100.00
20043;BME280;10182;52.896;6.496;2023-06-10T23:03:28;101559.13;;;18.61;100.00
20043;BME280;10182;52.896;6.496;2023-06-10T23:08:29;101555.94;;;18.56;100.00
20043;BME280;10182;52.896;6.496;2023-06-10T23:13:33;101558.38;;;18.47;100.00
20043;BME280;10182;52.896;6.496;2023-06-10T23:18:34;101548.28;;;18.50;100.00
20043;BME280;10182;52.896;6.496;2023-06-10T23:23:36;101559.09;;;18.36;100.00
20043;BME280;10182;52.896;6.496;2023-06-10T23:28:39;101558.22;;;18.35;100.00
20043;BME280;10182;52.896;6.496;2023-06-10T23:33:41;101556.19;;;18.39;100.00
20043;BME280;10182;52.896;6.496;2023-06-10T23:38:44;101552.84;;;18.35;100.00
20043;BME280;10182;52.896;6.496;2023-06-10T23:43:47;101549.88;;;18.40;100.00
20043;BME280;10182;52.896;6.496;2023-06-10T23:48:49;101544.50;;;18.40;100.00
20043;BME280;10182;52.896;6.496;2023-06-10T23:53:50;101553.97;;;18.18;100.00
20043;BME280;10182;52.896;6.496;2023-06-10T23:58:55;101549.59;;;18.03;100.00
